createdAt,value
2018-09-11T00:01:55.290Z,22.60
2018-09-11T00:04:26.734Z,22.60
2018-09-11T00:06:57.603Z,22.30
2018-09-11T00:09:29.113Z,22.20
2018-09-11T00:11:59.944Z,22.10
2018-09-11T00:14:30.973Z,22.20
2018-09-11T00:17:01.904Z,22.30
2018-09-11T00:19:32.937Z,22.20
2018-09-11T00:22:03.658Z,22.20
2018-09-11T00:24:34.772Z,22.10
2018-09-11T00:27:05.694Z,21.90
2018-09-11T00:29:36.759Z,21.90
2018-09-11T00:32:07.595Z,22.20
2018-09-11T00:34:38.365Z,22.40
2018-09-11T00:37:09.172Z,22.30
2018-09-11T00:39:39.965Z,22.60
2018-09-11T00:42:10.998Z,22.80
2018-09-11T00:44:41.868Z,22.80
2018-09-11T00:47:12.624Z,22.90
2018-09-11T00:49:43.484Z,23.00
2018-09-11T00:52:14.089Z,22.80
2018-09-11T00:54:45.070Z,22.60
2018-09-11T00:57:15.805Z,22.70
2018-09-11T00:59:47.861Z,22.70
2018-09-11T01:02:18.535Z,22.70
2018-09-11T01:04:49.354Z,22.70
2018-09-11T01:07:20.132Z,22.80
2018-09-11T01:09:51.239Z,22.80
2018-09-11T01:12:21.959Z,22.80
2018-09-11T01:14:52.809Z,22.70
2018-09-11T01:17:23.750Z,22.50
2018-09-11T01:19:54.673Z,22.40
2018-09-11T01:22:26.226Z,22.50
2018-09-11T01:24:56.989Z,22.60
2018-09-11T01:27:28.127Z,22.70
2018-09-11T01:29:59.326Z,22.70
2018-09-11T01:32:30.456Z,22.60
2018-09-11T01:35:01.714Z,22.70
2018-09-11T01:37:32.829Z,22.80
2018-09-11T01:40:03.927Z,22.80
2018-09-11T01:42:35.034Z,22.60
2018-09-11T01:45:06.212Z,22.70
2018-09-11T01:47:37.045Z,22.70
2018-09-11T01:50:08.230Z,22.70
2018-09-11T01:52:39.786Z,22.80
2018-09-11T01:55:10.955Z,22.80
2018-09-11T01:57:42.302Z,22.70
2018-09-11T02:00:17.519Z,22.80
2018-09-11T02:02:49.173Z,22.70
2018-09-11T02:05:20.504Z,22.40
2018-09-11T02:07:51.527Z,22.10
2018-09-11T02:10:22.721Z,22.10
2018-09-11T02:12:53.962Z,22.20
2018-09-11T02:15:25.262Z,22.30
2018-09-11T02:17:56.968Z,22.50
2018-09-11T02:20:28.735Z,22.40
2018-09-11T02:22:59.752Z,22.60
2018-09-11T02:25:31.006Z,22.70
2018-09-11T02:28:02.158Z,22.70
2018-09-11T02:30:33.684Z,22.70
2018-09-11T02:33:05.958Z,22.80
2018-09-11T02:35:37.146Z,22.80
2018-09-11T02:38:08.133Z,22.80
2018-09-11T02:40:39.237Z,22.80
2018-09-11T02:43:10.146Z,22.80
2018-09-11T02:45:41.114Z,22.50
2018-09-11T02:48:12.329Z,22.30
2018-09-11T02:50:43.544Z,22.20
2018-09-11T02:53:14.899Z,22.20
2018-09-11T02:55:46.011Z,22.30
2018-09-11T02:58:17.420Z,22.20
2018-09-11T03:00:48.484Z,22.10
2018-09-11T03:03:19.339Z,22.20
2018-09-11T03:05:50.708Z,22.30
2018-09-11T03:08:21.601Z,22.20
2018-09-11T03:10:53.663Z,22.20
2018-09-11T03:13:24.787Z,22.20
2018-09-11T03:15:56.037Z,22.20
2018-09-11T03:18:26.908Z,22.10
2018-09-11T03:20:58.109Z,21.90
2018-09-11T03:23:29.098Z,22.10
2018-09-11T03:26:00.218Z,22.20
2018-09-11T03:28:31.449Z,22.20
2018-09-11T03:31:02.601Z,22.00
2018-09-11T03:33:33.550Z,22.20
2018-09-11T03:36:04.580Z,22.20
2018-09-11T03:38:35.636Z,22.30
2018-09-11T03:41:06.968Z,22.10
2018-09-11T03:43:38.116Z,21.90
2018-09-11T03:46:09.161Z,21.60
2018-09-11T03:48:40.343Z,21.50
2018-09-11T03:51:13.129Z,21.80
2018-09-11T03:53:44.876Z,21.90
2018-09-11T03:56:15.853Z,21.90
2018-09-11T03:58:46.780Z,21.90
2018-09-11T04:01:17.830Z,22.00
2018-09-11T04:03:48.779Z,22.10
2018-09-11T04:06:20.377Z,22.10
2018-09-11T04:08:51.411Z,22.30
2018-09-11T04:11:22.720Z,22.20
2018-09-11T04:13:53.997Z,22.10
2018-09-11T04:16:25.012Z,22.10
2018-09-11T04:18:56.099Z,22.10
2018-09-11T04:21:27.195Z,22.20
2018-09-11T04:23:58.108Z,22.10
2018-09-11T04:26:29.278Z,22.00
2018-09-11T04:29:00.417Z,21.90
2018-09-11T04:31:31.744Z,21.90
2018-09-11T04:34:02.801Z,21.70
2018-09-11T04:36:33.898Z,21.70
2018-09-11T04:39:05.387Z,21.90
2018-09-11T04:41:36.343Z,21.90
2018-09-11T04:44:07.317Z,22.00
2018-09-11T04:46:38.534Z,22.00
2018-09-11T04:49:09.398Z,22.10
2018-09-11T04:51:40.635Z,22.00
2018-09-11T04:54:11.849Z,22.00
2018-09-11T04:56:42.761Z,21.70
2018-09-11T04:59:13.698Z,21.70
2018-09-11T05:01:45.218Z,21.70
2018-09-11T05:04:16.116Z,21.70
2018-09-11T05:06:47.119Z,21.70
2018-09-11T05:09:18.260Z,21.80
2018-09-11T05:11:49.889Z,21.80
2018-09-11T05:14:20.737Z,21.80
2018-09-11T05:16:52.020Z,21.70
2018-09-11T05:19:22.922Z,21.80
2018-09-11T05:21:54.864Z,21.90
2018-09-11T05:24:25.860Z,22.00
2018-09-11T05:26:57.008Z,22.00
2018-09-11T05:29:27.896Z,21.90
2018-09-11T05:31:58.971Z,21.80
2018-09-11T05:34:29.872Z,22.00
2018-09-11T05:37:01.000Z,21.90
2018-09-11T05:39:32.021Z,21.70
2018-09-11T05:42:03.157Z,21.80
2018-09-11T05:44:34.165Z,21.90
2018-09-11T05:47:05.368Z,21.80
2018-09-11T05:49:36.227Z,21.80
2018-09-11T05:52:07.605Z,21.70
2018-09-11T05:54:38.975Z,21.70
2018-09-11T05:57:10.049Z,21.80
2018-09-11T05:59:41.074Z,21.80
2018-09-11T06:02:12.299Z,21.70
2018-09-11T06:04:44.704Z,21.80
2018-09-11T06:07:16.199Z,21.80
2018-09-11T06:09:47.705Z,21.70
2018-09-11T06:12:19.041Z,21.70
2018-09-11T06:14:50.188Z,21.60
2018-09-11T06:17:21.563Z,21.60
2018-09-11T06:19:52.550Z,21.60
2018-09-11T06:22:23.675Z,21.50
2018-09-11T06:24:54.621Z,21.50
2018-09-11T06:27:26.039Z,21.50
2018-09-11T06:29:57.069Z,21.40
2018-09-11T06:32:28.294Z,21.40
2018-09-11T06:34:59.604Z,21.40
2018-09-11T06:37:30.671Z,21.50
2018-09-11T06:40:01.798Z,21.40
2018-09-11T06:42:33.288Z,21.60
2018-09-11T06:45:04.316Z,21.70
2018-09-11T06:47:35.323Z,21.70
2018-09-11T06:50:06.465Z,21.60
2018-09-11T06:52:37.591Z,21.70
2018-09-11T06:55:08.703Z,21.50
2018-09-11T06:57:40.003Z,21.40
2018-09-11T07:00:11.156Z,21.40
2018-09-11T07:02:42.318Z,21.10
2018-09-11T07:05:13.397Z,21.20
2018-09-11T07:07:44.487Z,21.20
2018-09-11T07:10:15.509Z,21.30
2018-09-11T07:12:46.695Z,21.30
2018-09-11T07:15:17.536Z,21.40
2018-09-11T07:17:48.443Z,21.50
2018-09-11T07:20:19.597Z,21.40
2018-09-11T07:22:50.827Z,21.30
2018-09-11T07:25:21.901Z,21.30
2018-09-11T07:27:53.053Z,21.30
2018-09-11T07:30:23.960Z,21.30
2018-09-11T07:32:55.651Z,21.20
2018-09-11T07:35:26.651Z,21.20
2018-09-11T07:37:57.861Z,21.10
2018-09-11T07:40:28.903Z,21.10
2018-09-11T07:43:00.023Z,21.00
2018-09-11T07:45:31.102Z,20.80
2018-09-11T07:48:02.249Z,20.90
2018-09-11T07:50:33.221Z,20.90
2018-09-11T07:53:05.394Z,20.90
2018-09-11T07:55:36.375Z,20.80
2018-09-11T07:58:07.515Z,20.90
2018-09-11T08:00:38.566Z,21.00
2018-09-11T08:03:09.824Z,20.90
2018-09-11T08:05:41.066Z,20.90
2018-09-11T08:08:12.492Z,20.80
2018-09-11T08:10:43.368Z,20.80
2018-09-11T08:13:14.367Z,20.70
2018-09-11T08:15:45.408Z,20.70
2018-09-11T08:18:16.596Z,20.70
2018-09-11T08:20:47.519Z,20.70
2018-09-11T08:23:18.506Z,20.70
2018-09-11T08:25:49.353Z,20.80
2018-09-11T08:28:20.640Z,20.80
2018-09-11T08:30:51.777Z,20.70
2018-09-11T08:33:23.631Z,20.70
2018-09-11T08:35:54.543Z,20.80
2018-09-11T08:38:25.630Z,20.80
2018-09-11T08:40:57.098Z,20.80
2018-09-11T08:43:28.426Z,20.80
2018-09-11T08:45:59.332Z,20.70
2018-09-11T08:48:30.555Z,20.70
2018-09-11T08:51:01.550Z,20.60
2018-09-11T08:53:33.127Z,20.60
2018-09-11T08:56:04.250Z,20.60
2018-09-11T08:58:35.187Z,20.60
2018-09-11T09:01:06.176Z,20.60
2018-09-11T09:03:37.862Z,20.70
2018-09-11T09:06:09.083Z,20.60
2018-09-11T09:08:40.112Z,20.70
2018-09-11T09:11:11.311Z,20.60
2018-09-11T09:13:42.453Z,20.50
2018-09-11T09:16:13.572Z,20.60
2018-09-11T09:18:44.756Z,20.60
2018-09-11T09:21:15.746Z,20.60
2018-09-11T09:23:46.666Z,20.70
2018-09-11T09:26:17.887Z,20.60
2018-09-11T09:28:48.942Z,20.60
2018-09-11T09:31:20.388Z,20.60
2018-09-11T09:33:51.949Z,20.40
2018-09-11T09:36:23.374Z,20.50
2018-09-11T09:38:54.221Z,20.60
2018-09-11T09:41:25.207Z,20.50
2018-09-11T09:43:56.343Z,20.40
2018-09-11T09:46:27.426Z,20.30
2018-09-11T09:48:58.451Z,20.30
2018-09-11T09:51:29.475Z,20.30
2018-09-11T09:54:00.643Z,20.30
2018-09-11T09:56:32.082Z,20.30
2018-09-11T09:59:03.160Z,20.20
2018-09-11T10:01:38.651Z,20.30
2018-09-11T10:04:09.572Z,20.20
2018-09-11T10:06:40.757Z,20.20
2018-09-11T10:09:13.351Z,20.20
2018-09-11T10:11:44.619Z,20.30
2018-09-11T10:14:15.929Z,20.30
2018-09-11T10:16:47.136Z,20.30
2018-09-11T10:19:18.013Z,20.10
2018-09-11T10:21:49.210Z,20.10
2018-09-11T10:24:20.170Z,20.20
2018-09-11T10:26:51.231Z,20.10
2018-09-11T10:29:22.070Z,20.10
2018-09-11T10:31:53.662Z,20.20
2018-09-11T10:34:25.006Z,20.20
2018-09-11T10:36:56.298Z,20.20
2018-09-11T10:39:28.170Z,20.40
2018-09-11T10:41:59.190Z,20.40
2018-09-11T10:44:30.160Z,20.50
2018-09-11T10:47:01.088Z,20.60
2018-09-11T10:49:32.151Z,20.50
2018-09-11T10:52:03.209Z,20.40
2018-09-11T10:54:34.435Z,20.40
2018-09-11T10:57:05.401Z,20.50
2018-09-11T10:59:36.611Z,20.50
2018-09-11T11:02:07.918Z,20.30
2018-09-11T11:04:38.896Z,20.40
2018-09-11T11:07:09.886Z,20.30
2018-09-11T11:09:41.752Z,20.30
2018-09-11T11:12:12.745Z,20.40
2018-09-11T11:14:44.174Z,20.40
2018-09-11T11:17:15.320Z,20.50
2018-09-11T11:19:47.036Z,20.60
2018-09-11T11:22:18.280Z,20.60
2018-09-11T11:24:49.542Z,20.50
2018-09-11T11:27:20.800Z,20.40
2018-09-11T11:29:51.971Z,20.40
2018-09-11T11:32:22.933Z,20.40
2018-09-11T11:34:54.301Z,20.50
2018-09-11T11:37:25.570Z,20.40
2018-09-11T11:39:56.762Z,20.40
2018-09-11T11:42:28.168Z,20.40
2018-09-11T11:44:59.297Z,20.40
2018-09-11T11:47:30.233Z,20.50
2018-09-11T11:50:01.256Z,20.50
2018-09-11T11:52:32.292Z,20.40
2018-09-11T11:55:03.489Z,20.50
2018-09-11T11:57:34.727Z,20.40
2018-09-11T12:00:05.915Z,20.40
2018-09-11T12:02:37.453Z,20.30
2018-09-11T12:05:08.375Z,20.30
2018-09-11T12:07:39.499Z,20.30
2018-09-11T12:10:10.388Z,20.20
2018-09-11T12:12:41.770Z,20.20
2018-09-11T12:15:12.892Z,20.20
2018-09-11T12:17:44.423Z,20.30
2018-09-11T12:20:15.669Z,20.30
2018-09-11T12:22:46.617Z,20.30
2018-09-11T12:25:17.821Z,20.30
2018-09-11T12:27:49.005Z,20.30
2018-09-11T12:30:20.941Z,20.30
2018-09-11T12:32:51.962Z,20.20
2018-09-11T12:35:23.452Z,20.30
2018-09-11T12:37:54.540Z,20.30
2018-09-11T12:40:25.465Z,20.20
2018-09-11T12:42:56.331Z,20.10
2018-09-11T12:45:27.345Z,20.10
2018-09-11T12:47:58.943Z,20.10
2018-09-11T12:50:30.770Z,20.10
2018-09-11T12:53:01.770Z,20.20
2018-09-11T12:55:32.945Z,20.20
2018-09-11T12:58:03.868Z,20.30
2018-09-11T13:00:34.927Z,20.30
2018-09-11T13:03:06.151Z,20.40
2018-09-11T13:05:37.323Z,20.60
2018-09-11T13:08:08.313Z,20.70
2018-09-11T13:10:39.834Z,20.80
2018-09-11T13:13:11.070Z,20.90
2018-09-11T13:15:47.272Z,20.90
2018-09-11T13:18:18.716Z,20.90
2018-09-11T13:20:50.223Z,20.90
2018-09-11T13:23:21.554Z,20.90
2018-09-11T13:25:52.601Z,20.90
2018-09-11T13:28:23.707Z,20.90
2018-09-11T13:30:54.663Z,20.90
2018-09-11T13:33:25.847Z,21.00
2018-09-11T13:35:57.485Z,21.00
2018-09-11T13:38:28.492Z,21.00
2018-09-11T13:40:59.424Z,20.80
2018-09-11T13:43:34.344Z,20.70
2018-09-11T13:46:05.252Z,20.70
2018-09-11T13:48:36.476Z,20.60
2018-09-11T13:51:07.511Z,20.70
2018-09-11T13:53:38.611Z,20.80
2018-09-11T13:56:10.157Z,20.90
2018-09-11T13:58:41.311Z,20.90
2018-09-11T14:01:12.427Z,20.80
2018-09-11T14:03:43.602Z,20.90
2018-09-11T14:06:14.692Z,21.10
2018-09-11T14:08:46.833Z,21.40
2018-09-11T14:11:17.900Z,22.00
2018-09-11T14:13:49.028Z,22.50
2018-09-11T14:16:20.172Z,23.20
2018-09-11T14:18:51.466Z,23.70
2018-09-11T14:21:23.226Z,23.90
2018-09-11T14:23:57.880Z,24.20
2018-09-11T14:26:31.094Z,24.60
2018-09-11T14:29:04.410Z,24.90
2018-09-11T14:31:37.558Z,25.30
2018-09-11T14:34:08.923Z,25.60
2018-09-11T14:36:41.120Z,25.60
2018-09-11T14:39:13.987Z,25.90
2018-09-11T14:41:45.420Z,26.00
2018-09-11T14:44:16.609Z,26.10
2018-09-11T14:46:47.738Z,25.70
2018-09-11T14:49:18.611Z,26.00
2018-09-11T14:51:49.925Z,26.10
2018-09-11T14:54:21.044Z,26.00
2018-09-11T14:56:52.842Z,26.10
2018-09-11T14:59:23.830Z,26.10
2018-09-11T15:01:54.842Z,26.50
2018-09-11T15:04:25.766Z,26.00
2018-09-11T15:06:57.012Z,25.60
2018-09-11T15:09:28.092Z,25.50
2018-09-11T15:12:01.811Z,25.20
2018-09-11T15:14:38.776Z,24.90
2018-09-11T15:17:22.462Z,25.20
2018-09-11T15:20:01.267Z,24.90
2018-09-11T15:22:37.332Z,25.00
2018-09-11T15:31:44.223Z,25.70
2018-09-11T15:34:16.102Z,25.30
2018-09-11T15:36:50.829Z,25.20
2018-09-11T15:39:25.264Z,25.40
2018-09-11T15:41:56.784Z,25.80
2018-09-11T15:44:28.229Z,25.60
2018-09-11T15:47:00.936Z,25.90
2018-09-11T15:49:32.481Z,25.70
2018-09-11T15:52:03.773Z,25.50
2018-09-11T15:54:35.032Z,25.90
2018-09-11T15:57:06.124Z,25.80
2018-09-11T15:59:37.792Z,25.90
2018-09-11T16:02:09.773Z,25.60
2018-09-11T16:04:40.798Z,25.10
2018-09-11T16:07:11.769Z,25.70
2018-09-11T16:09:43.592Z,25.80
2018-09-11T16:12:15.164Z,26.20
2018-09-11T16:14:47.270Z,26.70
2018-09-11T16:17:18.237Z,26.20
2018-09-11T16:19:49.873Z,26.20
2018-09-11T16:22:20.925Z,26.70
2018-09-11T16:24:52.487Z,26.70
2018-09-11T16:27:23.656Z,26.70
2018-09-11T16:29:54.717Z,26.80
2018-09-11T16:32:28.549Z,26.50
2018-09-11T16:35:02.173Z,27.00
2018-09-11T16:37:33.184Z,26.60
2018-09-11T16:40:06.642Z,26.70
2018-09-11T16:42:38.025Z,27.00
2018-09-11T16:45:10.619Z,27.10
2018-09-11T16:47:42.656Z,26.60
2018-09-11T16:50:14.575Z,26.70
2018-09-11T16:52:46.311Z,26.30
2018-09-11T16:55:17.800Z,25.90
2018-09-11T16:57:49.502Z,26.50
2018-09-11T17:00:24.264Z,26.50
2018-09-11T17:03:00.578Z,26.70
2018-09-11T17:05:31.680Z,27.10
2018-09-11T17:08:02.664Z,26.80
2018-09-11T17:10:35.037Z,27.00
2018-09-11T17:13:06.273Z,27.80
2018-09-11T17:15:37.557Z,27.90
2018-09-11T17:18:08.886Z,28.60
2018-09-11T17:20:41.054Z,28.40
2018-09-11T17:23:13.190Z,28.90
2018-09-11T17:25:46.915Z,29.00
2018-09-11T17:28:18.883Z,28.60
2018-09-11T17:30:50.163Z,28.10
2018-09-11T17:33:21.516Z,28.10
2018-09-11T17:35:53.318Z,27.80
2018-09-11T17:38:26.381Z,28.10
2018-09-11T17:40:58.567Z,28.10
2018-09-11T17:43:35.489Z,28.40
2018-09-11T17:46:08.513Z,28.90
2018-09-11T17:48:41.803Z,29.20
2018-09-11T17:51:13.854Z,29.90
2018-09-11T17:53:45.318Z,30.00
2018-09-11T17:56:17.493Z,29.80
2018-09-11T17:58:49.609Z,29.60
2018-09-11T18:01:22.311Z,29.50
2018-09-11T18:03:54.752Z,29.40
2018-09-11T18:06:26.723Z,29.40
2018-09-11T18:08:58.226Z,28.80
2018-09-11T18:11:30.385Z,28.60
2018-09-11T18:14:01.502Z,29.10
2018-09-11T18:16:33.171Z,29.90
2018-09-11T18:19:04.954Z,30.30
2018-09-11T18:21:36.372Z,30.30
2018-09-11T18:24:07.272Z,30.30
2018-09-11T18:26:39.509Z,29.80
2018-09-11T18:29:11.003Z,29.80
2018-09-11T18:31:42.015Z,30.10
2018-09-11T18:34:13.463Z,29.20
2018-09-11T18:36:45.448Z,29.00
2018-09-11T18:39:16.519Z,28.90
2018-09-11T18:41:47.957Z,29.20
2018-09-11T18:44:19.474Z,29.70
2018-09-11T18:46:50.704Z,30.20
2018-09-11T18:49:21.871Z,30.60
2018-09-11T18:51:53.486Z,31.00
2018-09-11T18:54:25.653Z,30.90
2018-09-11T18:56:56.844Z,30.80
2018-09-11T18:59:29.137Z,30.70
2018-09-11T19:02:00.689Z,30.50
2018-09-11T19:04:32.682Z,30.30
2018-09-11T19:07:03.650Z,30.80
2018-09-11T19:09:34.771Z,30.70
2018-09-11T19:12:06.416Z,30.70
2018-09-11T19:14:37.431Z,31.00
2018-09-11T19:17:08.478Z,31.20
2018-09-11T19:19:40.499Z,31.20
2018-09-11T19:22:11.735Z,31.60
2018-09-11T19:24:42.946Z,31.60
2018-09-11T19:27:14.788Z,31.50
2018-09-11T19:29:45.706Z,31.40
2018-09-11T19:32:16.792Z,31.60
2018-09-11T19:34:47.653Z,31.50
2018-09-11T19:37:18.784Z,31.40
2018-09-11T19:39:50.936Z,30.70
2018-09-11T19:42:22.245Z,30.20
2018-09-11T19:44:53.199Z,29.70
2018-09-11T19:47:24.115Z,29.70
2018-09-11T19:49:55.829Z,29.40
2018-09-11T19:52:26.790Z,29.50
2018-09-11T19:54:58.946Z,29.30
2018-09-11T19:57:30.221Z,29.60
2018-09-11T20:00:01.143Z,30.10
2018-09-11T20:02:32.928Z,30.10
2018-09-11T20:05:03.768Z,30.60
2018-09-11T20:07:34.784Z,31.00
2018-09-11T20:10:07.643Z,31.60
2018-09-11T20:12:39.770Z,31.80
2018-09-11T20:15:10.720Z,31.20
2018-09-11T20:17:43.317Z,31.60
2018-09-11T20:20:14.167Z,31.40
2018-09-11T20:22:45.500Z,30.50
2018-09-11T20:25:16.608Z,30.40
2018-09-11T20:27:48.133Z,30.60
2018-09-11T20:30:20.252Z,30.90
2018-09-11T20:32:52.560Z,31.50
2018-09-11T20:35:23.946Z,31.30
2018-09-11T20:37:56.192Z,31.20
2018-09-11T20:40:28.568Z,30.60
2018-09-11T20:43:01.666Z,30.40
2018-09-11T20:45:32.943Z,29.90
2018-09-11T20:48:04.023Z,29.90
2018-09-11T20:50:36.207Z,30.10
2018-09-11T20:53:07.495Z,30.30
2018-09-11T20:55:41.314Z,30.20
2018-09-11T20:58:13.435Z,30.30
2018-09-11T21:00:44.473Z,30.10
2018-09-11T21:03:15.993Z,30.60
2018-09-11T21:05:47.756Z,30.30
2018-09-11T21:08:20.881Z,30.10
2018-09-11T21:10:52.361Z,30.40
2018-09-11T21:13:25.230Z,30.30
2018-09-11T21:15:57.454Z,29.80
2018-09-11T21:18:29.462Z,30.10
2018-09-11T21:21:01.207Z,30.20
2018-09-11T21:23:32.873Z,30.10
2018-09-11T21:26:04.536Z,30.30
2018-09-11T21:28:38.100Z,29.70
2018-09-11T21:31:15.195Z,29.70
2018-09-11T21:33:46.859Z,29.80
2018-09-11T21:36:17.725Z,29.50
2018-09-11T21:38:48.985Z,29.50
2018-09-11T21:41:20.566Z,29.70
2018-09-11T21:43:51.642Z,29.90
2018-09-11T21:46:22.994Z,30.10
2018-09-11T21:48:54.214Z,29.50
2018-09-11T21:51:25.635Z,29.10
2018-09-11T21:53:57.968Z,29.30
2018-09-11T21:56:29.974Z,29.40
2018-09-11T21:59:01.258Z,29.40
2018-09-11T22:01:36.372Z,29.40
2018-09-11T22:04:07.555Z,29.00
2018-09-11T22:06:39.805Z,29.40
2018-09-11T22:09:13.038Z,29.70
2018-09-11T22:11:44.070Z,29.50
2018-09-11T22:14:15.756Z,29.70
2018-09-11T22:16:47.359Z,29.40
2018-09-11T22:19:18.890Z,29.40
2018-09-11T22:21:49.801Z,29.30
2018-09-11T22:24:20.792Z,29.50
2018-09-11T22:26:51.918Z,29.10
2018-09-11T22:29:23.611Z,28.80
2018-09-11T22:31:54.474Z,28.30
2018-09-11T22:34:25.944Z,28.10
2018-09-11T22:36:57.382Z,28.10
2018-09-11T22:39:28.961Z,28.00
2018-09-11T22:42:02.467Z,28.00
2018-09-11T22:44:33.880Z,28.20
2018-09-11T22:47:06.013Z,28.20
2018-09-11T22:49:37.201Z,28.20
2018-09-11T22:52:08.180Z,27.90
2018-09-11T22:54:39.395Z,27.10
2018-09-11T22:57:10.813Z,27.10
2018-09-11T22:59:42.596Z,26.60
2018-09-11T23:02:13.579Z,26.40
2018-09-11T23:04:44.611Z,26.30
2018-09-11T23:07:15.611Z,26.10
2018-09-11T23:09:46.755Z,26.40
2018-09-11T23:12:17.936Z,26.10
2018-09-11T23:14:49.494Z,25.70
2018-09-11T23:17:22.131Z,25.90
2018-09-11T23:19:53.115Z,25.80
2018-09-11T23:22:24.049Z,25.60
2018-09-11T23:24:55.886Z,25.20
2018-09-11T23:27:26.964Z,25.20
2018-09-11T23:29:58.182Z,25.40
2018-09-11T23:32:29.372Z,25.20
2018-09-11T23:35:00.338Z,25.30
2018-09-11T23:37:31.688Z,25.30
2018-09-11T23:40:02.646Z,25.10
2018-09-11T23:42:33.583Z,24.90
2018-09-11T23:45:04.821Z,24.50
2018-09-11T23:47:38.004Z,24.40
2018-09-11T23:50:09.873Z,24.60
2018-09-11T23:52:41.081Z,24.40
2018-09-11T23:55:12.173Z,24.10
2018-09-11T23:57:43.268Z,23.90
